createdAt,value
2023-04-01T13:02:26.867Z,58.08
2023-04-01T13:05:02.737Z,59.08
2023-04-01T13:08:17.079Z,59.42
2023-04-01T13:11:02.397Z,59.25
2023-04-01T13:13:48.800Z,59.97
2023-04-01T13:16:16.089Z,58.78
2023-04-01T13:18:54.055Z,58.93
2023-04-01T13:21:25.921Z,60.80
2023-04-01T13:23:57.517Z,61.03
2023-04-01T13:26:28.455Z,61.19
2023-04-01T13:28:59.798Z,61.54
2023-04-01T13:31:56.657Z,62.43
2023-04-01T13:34:34.261Z,62.55
2023-04-01T13:37:10.284Z,63.39
2023-04-01T13:39:46.751Z,63.61
2023-04-01T13:42:18.021Z,61.31
2023-04-01T13:44:47.435Z,57.57
2023-04-01T13:47:41.057Z,52.38
2023-04-01T13:50:19.073Z,53.19
2023-04-01T13:52:57.507Z,54.31
2023-04-01T13:55:47.789Z,55.85
2023-04-01T13:58:45.601Z,55.40
2023-04-01T14:01:15.252Z,58.05
2023-04-01T14:03:49.531Z,58.40
2023-04-01T14:06:22.136Z,59.75
2023-04-01T14:09:20.190Z,58.24
2023-04-01T14:11:51.769Z,59.60
2023-04-01T14:14:22.089Z,60.54
2023-04-01T14:17:04.816Z,61.84
2023-04-01T14:19:41.072Z,65.48
2023-04-01T14:22:14.868Z,66.70
2023-04-01T14:24:52.298Z,68.30
2023-04-01T14:27:25.192Z,66.40
2023-04-01T14:30:07.427Z,65.28
2023-04-01T14:32:39.791Z,66.79
2023-04-01T14:35:17.410Z,65.88
2023-04-01T14:38:14.292Z,66.13
2023-04-01T14:40:52.701Z,66.14
2023-04-01T14:43:39.508Z,69.10
2023-04-01T14:47:09.114Z,70.38
2023-04-01T14:49:37.066Z,68.99
2023-04-01T14:52:10.940Z,67.13
2023-04-01T14:54:43.218Z,66.79
2023-04-01T14:57:12.511Z,64.62
2023-04-01T14:59:40.985Z,63.79
2023-04-01T15:02:13.891Z,58.84
2023-04-01T15:04:48.721Z,54.49
2023-04-01T15:07:42.480Z,49.02
2023-04-01T15:10:14.121Z,45.78
2023-04-01T15:12:43.056Z,45.58
2023-04-01T15:15:18.820Z,51.75
2023-04-01T15:17:52.455Z,48.57
2023-04-01T15:20:35.067Z,53.34
2023-04-01T15:23:15.074Z,54.94
2023-04-01T15:25:53.082Z,57.54
2023-04-01T15:28:25.202Z,61.14
2023-04-01T15:30:55.590Z,62.79
2023-04-01T15:33:32.308Z,64.16
2023-04-01T15:36:04.174Z,64.87
2023-04-01T15:38:34.533Z,66.43
2023-04-01T15:41:09.233Z,66.65
2023-04-01T15:43:41.614Z,65.64
2023-04-01T15:46:25.910Z,66.25
2023-04-01T15:49:01.293Z,66.07
2023-04-01T15:51:37.313Z,66.24
2023-04-01T15:54:13.599Z,63.66
2023-04-01T15:56:52.270Z,63.69
2023-04-01T15:59:34.065Z,63.08
2023-04-01T16:02:03.176Z,61.17
2023-04-01T16:04:41.633Z,62.74
2023-04-01T16:07:12.209Z,63.80
2023-04-01T16:09:54.229Z,62.98
2023-04-01T16:12:30.163Z,63.68
2023-04-01T16:15:02.657Z,63.42
2023-04-01T16:17:44.982Z,63.22
2023-04-01T16:20:19.072Z,63.10
2023-04-01T16:22:48.116Z,63.33
2023-04-01T16:25:20.433Z,62.39
2023-04-01T16:27:52.605Z,63.39
2023-04-01T16:30:45.390Z,63.22
2023-04-01T16:33:15.287Z,63.92
2023-04-01T16:35:44.629Z,62.88
2023-04-01T16:38:17.016Z,64.16
2023-04-01T16:40:46.226Z,65.47
2023-04-01T16:43:19.214Z,65.48
2023-04-01T16:45:48.309Z,67.04
2023-04-01T16:48:15.925Z,68.65
2023-04-01T16:50:52.440Z,67.12
2023-04-01T16:53:22.635Z,65.74
2023-04-01T16:55:51.171Z,68.66
2023-04-01T16:58:24.227Z,67.22
2023-04-01T17:00:53.733Z,67.29
2023-04-01T17:03:23.546Z,68.19
2023-04-01T17:06:03.787Z,68.42
2023-04-01T17:08:40.368Z,69.88
2023-04-01T17:11:11.098Z,70.72
2023-04-01T17:13:44.629Z,71.56
2023-04-01T17:16:20.243Z,71.51
2023-04-01T17:18:50.645Z,71.26
2023-04-01T17:21:19.532Z,70.75
2023-04-01T17:23:49.588Z,70.59
2023-04-01T17:26:24.661Z,71.00
2023-04-01T17:28:53.976Z,70.75
2023-04-01T17:31:46.747Z,71.24
2023-04-01T17:34:25.778Z,71.96
2023-04-01T17:37:05.990Z,71.98
2023-04-01T17:39:42.219Z,73.32
2023-04-01T17:42:10.819Z,72.59
2023-04-01T17:44:48.466Z,71.97
2023-04-01T17:47:40.058Z,72.46
2023-04-01T17:50:24.596Z,72.32
2023-04-01T17:53:08.615Z,73.06
2023-04-01T17:55:48.568Z,72.74
2023-04-01T17:58:19.396Z,73.84
2023-04-01T18:00:59.790Z,72.90
2023-04-01T18:03:38.529Z,72.71
2023-04-01T18:06:07.785Z,73.41
2023-04-01T18:08:41.808Z,73.07
2023-04-01T18:11:13.386Z,73.49
2023-04-01T18:14:01.638Z,74.05
2023-04-01T18:16:38.472Z,74.89
2023-04-01T18:19:10.500Z,74.57
2023-04-01T18:21:43.355Z,73.86
2023-04-01T18:24:16.125Z,74.29
2023-04-01T18:26:44.372Z,74.13
2023-04-01T18:29:14.577Z,74.63
2023-04-01T18:31:44.406Z,74.53
2023-04-01T18:34:15.718Z,75.46
2023-04-01T18:36:45.496Z,74.57
2023-04-01T18:39:14.378Z,74.97
2023-04-01T18:41:51.494Z,74.44
2023-04-01T18:44:26.957Z,74.21
2023-04-01T18:46:59.189Z,74.15
2023-04-01T18:49:28.689Z,74.39
2023-04-01T18:51:57.935Z,74.66
2023-04-01T18:54:27.548Z,73.49
2023-04-01T18:57:02.235Z,73.39
2023-04-01T18:59:30.891Z,73.10
2023-04-01T19:02:03.613Z,73.16
2023-04-01T19:04:33.133Z,72.48
2023-04-01T19:07:01.035Z,72.16
2023-04-01T19:09:29.009Z,71.73
2023-04-01T19:12:16.008Z,71.15
2023-04-01T19:14:54.750Z,71.95
2023-04-01T19:17:30.753Z,71.69
2023-04-01T19:20:00.906Z,71.17
2023-04-01T19:22:44.529Z,71.23
2023-04-01T19:25:21.749Z,71.76
2023-04-01T19:27:50.922Z,71.43
2023-04-01T19:30:31.063Z,72.11
2023-04-01T19:33:05.209Z,72.14
2023-04-01T19:35:37.073Z,73.19
2023-04-01T19:38:05.526Z,73.10
2023-04-01T19:40:42.870Z,73.73
2023-04-01T19:43:14.251Z,73.63
2023-04-01T19:45:44.284Z,74.09
2023-04-01T19:48:20.159Z,73.08
2023-04-01T19:50:48.859Z,73.86
2023-04-01T19:53:19.853Z,73.90
2023-04-01T19:55:49.271Z,74.69
2023-04-01T19:58:19.214Z,73.76
2023-04-01T20:00:49.116Z,73.10
2023-04-01T20:03:26.062Z,72.79
2023-04-01T20:06:00.204Z,74.71
